Latest Weather Observations for Cape Naturaliste

IDW60801

Issued at 11:24 pm WST Friday 28 February 2020 (issued every 10 minutes, with the page automatically refreshed every 10 minutes)

About weather observations | Map of weather stations | Latest weather observations for WA | Other Formats
Station Details ID: 009519 Name: CAPE NATURALISTE Lat: -33.54 Lon: 115.02 Height: 109.0 m
Data from the previous 72 hours. | See also: Recent months at Cape Naturaliste
Date/Time
WST
Temp
°C
App
Temp
°C
Dew
Point
°C
Rel
Hum
%
Delta-T
°C
Wind Press
QNH
hPa
Press
MSL
hPa
Rain since
9am
mm
Dir  Spd
km/h
Gust
km/h
Spd
kts
Gust
kts
28/11:00pm 20.8 20.5 19.1 90 1.1 W 19 24 10 13 1007.8 1007.4 0.0
28/10:30pm 21.1 21.0 19.6 91 1.0 WNW 19 26 10 14 1007.7 1007.3 0.0
28/10:00pm 20.8 21.2 19.1 90 1.1 WNW 15 19 8 10 1008.0 1007.6 0.0
28/09:30pm 21.0 20.7 19.5 91 1.0 WNW 20 24 11 13 1008.0 1007.6 0.0
28/09:00pm 21.3 21.3 19.8 91 1.0 WNW 19 24 10 13 1007.9 1007.5 0.0
28/08:30pm 21.5 22.4 20.0 91 1.0 NW 15 20 8 11 1007.8 1007.4 0.0
28/08:00pm 21.6 22.7 19.7 89 1.2 WNW 13 17 7 9 1007.4 1007.0 0.0
28/07:30pm 21.9 23.3 19.6 87 1.5 NW 11 15 6 8 1007.1 1006.7 0.0
28/07:00pm 22.7 23.6 20.0 85 1.7 WNW 15 20 8 11 1006.8 1006.4 0.0
28/06:30pm 23.1 23.4 19.5 80 2.3 NW 17 20 9 11 1006.6 1006.2 0.0
28/06:00pm 24.2 24.8 19.5 75 3.0 NNW 15 20 8 11 1006.5 1006.1 0.0
28/05:30pm 24.9 25.0 19.1 70 3.7 NNW 17 20 9 11 1006.5 1006.1 0.0
28/05:00pm 25.4 25.5 19.1 68 4.1 NNW 17 20 9 11 1006.3 1005.9 0.0
28/04:30pm 25.8 25.3 19.0 66 4.4 N 20 26 11 14 1006.1 1005.7 0.0
28/04:00pm 26.3 25.9 18.9 63 4.8 N 19 20 10 11 1005.9 1005.5 0.0
28/03:30pm 26.7 26.0 18.3 60 5.4 N 19 24 10 13 1006.0 1005.6 0.0
28/03:00pm 26.9 27.1 19.3 63 4.9 N 17 22 9 12 1005.9 1005.5 0.0
28/02:30pm 27.3 26.6 18.6 59 5.6 NNE 20 24 11 13 1006.0 1005.6 0.0
28/02:00pm 27.5 27.0 19.0 59 5.5 NE 20 24 11 13 1006.3 1005.9 0.0
28/01:30pm 28.1 27.3 19.3 58 5.7 NE 22 28 12 15 1006.7 1006.3 0.0
28/01:00pm 27.3 25.9 18.9 60 5.4 NNE 24 28 13 15 1007.3 1006.9 0.0
28/12:30pm 27.2 25.9 19.0 61 5.3 NE 24 28 13 15 1007.6 1007.2 0.0
28/12:00pm 27.8 26.9 19.1 59 5.6 NNE 22 30 12 16 1008.1 1007.7 0.0
28/11:30am 27.2 25.5 19.0 61 5.3 NNE 26 32 14 17 1008.4 1008.0 0.0
28/11:00am 28.0 26.3 19.0 58 5.8 NE 26 33 14 18 1008.7 1008.4 0.0
28/10:30am 28.2 26.8 18.9 57 6.0 NE 24 32 13 17 1008.8 1008.5 0.0
28/10:00am 27.3 25.3 17.5 55 6.2 NE 24 28 13 15 1008.7 1008.4 0.0
28/09:30am 26.8 25.6 17.6 57 5.8 NE 20 24 11 13 1008.9 1008.6 0.0
28/09:00am 26.8 25.6 17.6 57 5.8 NE 20 26 11 14 1008.5 1008.1 0.0
28/08:30am 26.3 24.8 17.6 58 5.5 NE 22 26 12 14 1008.1 1007.7 0.0
28/08:00am 25.6 24.3 17.3 60 5.2 NE 20 24 11 13 1008.0 1007.6 0.0
28/07:30am 24.5 23.0 17.7 66 4.3 NE 22 28 12 15 1007.8 1007.4 0.0
28/07:00am 22.6 20.6 17.5 73 3.2 NE 24 30 13 16 1008.0 1007.6 0.0
28/06:30am 23.0 19.9 17.5 71 3.4 ENE 30 35 16 19 1007.6 1007.2 0.0
28/06:00am 23.0 20.0 16.8 68 3.8 ENE 28 32 15 17 1007.4 1007.0 0.0
28/05:30am 22.9 19.4 16.4 67 4.0 E 30 35 16 19 1007.0 1006.6 0.0
28/05:00am 22.5 19.0 16.5 69 3.7 E 30 37 16 20 1006.8 1006.4 0.0
28/04:30am 22.7 19.1 16.3 67 3.9 E 30 35 16 19 1007.1 1006.7 0.0
28/04:00am 23.1 19.2 16.4 66 4.1 E 32 37 17 20 1007.1 1006.7 0.0
28/03:30am 23.2 19.3 16.5 66 4.1 E 32 43 17 23 1007.4 1007.0 0.0
28/03:00am 22.0 19.3 16.7 72 3.3 E 26 32 14 17 1007.7 1007.3 0.0
28/02:30am 21.5 19.3 16.9 75 2.8 E 24 28 13 15 1008.0 1007.6 0.0
28/02:00am 21.5 19.4 17.1 76 2.7 ESE 24 30 13 16 1008.1 1007.7 0.0
28/01:30am 21.5 19.8 17.1 76 2.7 ESE 22 30 12 16 1008.5 1008.1 0.0
28/01:00am 21.4 19.6 17.0 76 2.7 ESE 22 30 12 16 1008.7 1008.4 0.0
28/12:30am 21.4 19.4 17.4 78 2.5 ESE 24 30 13 16 1008.6 1008.2 0.0
28/12:00am 21.7 20.1 17.5 77 2.6 E 22 30 12 16 1009.6 1009.2 0.0
 
Date/Time
WST
Temp
°C
App
Temp
°C
Dew
Point
°C
Rel
Hum
%
Delta-T
°C
Wind Press
QNH
hPa
Press
MSL
hPa
Rain since
9am
mm
Dir  Spd
km/h
Gust
km/h
Spd
kts
Gust
kts
27/11:30pm 21.6 19.9 17.2 76 2.7 ESE 22 30 12 16 1009.5 1009.1 0.0
27/11:00pm 21.9 20.5 17.1 74 3.0 ESE 20 26 11 14 1009.9 1009.5 0.0
27/10:30pm 22.2 20.8 16.9 72 3.3 E 20 28 11 15 1010.1 1009.7 0.0
27/10:00pm 22.7 19.7 16.7 69 3.7 ESE 28 33 15 18 1010.2 1009.8 0.0
27/09:30pm 22.6 19.6 16.9 70 3.5 ESE 28 35 15 19 1009.5 1009.1 0.0
27/09:00pm 22.8 19.5 17.0 70 3.6 ESE 30 37 16 20 1009.7 1009.3 0.0
27/08:30pm 23.4 20.2 17.2 68 3.8 ESE 30 39 16 21 1009.5 1009.1 0.0
27/08:00pm 23.5 20.7 17.3 68 3.9 ESE 28 35 15 19 1009.6 1009.2 0.0
27/07:30pm 23.5 20.3 17.3 68 3.9 E 30 39 16 21 1009.9 1009.5 0.0
27/07:08pm 23.6 20.2 17.8 70 3.6 E 32 50 17 27 1009.8 1009.4 0.0
27/07:07pm 23.6 20.1 17.8 70 3.6 E 33 50 18 27 1009.7 1009.3 0.0
27/07:00pm 23.3 18.2 17.7 71 3.5 E 41 54 22 29 1007.5 1007.1 0.0
27/06:52pm 24.0 20.2 18.0 69 3.8 E 35 50 19 27 1007.8 1007.4 0.0
27/06:30pm 24.3 21.2 17.5 66 4.3 E 30 37 16 20 1010.0 1009.6 0.0
27/06:00pm 24.9 21.0 17.9 65 4.4 E 35 44 19 24 1008.6 1008.2 0.0
27/05:30pm 24.9 21.2 18.4 67 4.1 E 35 43 19 23 1008.8 1008.5 0.0
27/05:00pm 25.6 22.5 18.8 66 4.4 E 33 43 18 23 1008.9 1008.6 0.0
27/04:30pm 24.2 21.3 18.8 72 3.4 E 32 39 17 21 1009.0 1008.7 0.0
27/04:00pm 24.5 21.6 18.9 71 3.6 E 32 41 17 22 1009.1 1008.8 0.0
27/03:30pm 25.2 21.8 18.9 68 4.0 E 35 44 19 24 1008.8 1008.5 0.0
27/03:00pm 25.2 20.7 18.2 65 4.4 E 39 50 21 27 1008.9 1008.6 0.0
27/02:30pm 25.8 20.3 17.7 61 5.1 E 43 57 23 31 1009.2 1008.9 0.0
27/02:00pm 25.8 20.3 18.0 62 4.9 E 44 54 24 29 1010.0 1009.6 0.0
27/01:30pm 25.0 20.1 18.2 66 4.3 E 41 52 22 28 1010.7 1010.3 0.0
27/01:00pm 24.0 18.3 17.3 66 4.2 E 43 56 23 30 1011.1 1010.7 0.0
27/12:30pm 23.8 18.2 17.8 69 3.8 E 44 59 24 32 1011.8 1011.4 0.0
27/12:00pm 23.2 17.8 17.0 68 3.8 E 41 59 22 32 1012.6 1012.2 0.0
27/11:59am 23.4 18.5 17.2 68 3.8 E 39 59 21 32 1012.6 1012.2 0.0
27/11:30am 22.7 17.2 17.6 73 3.2 E 43 57 23 31 1012.6 1012.2 0.0
27/11:00am 21.8 16.3 17.6 77 2.6 E 43 54 23 29 1013.4 1013.0 0.0
27/10:30am 19.2 14.0 16.6 85 1.6 ESE 39 56 21 30 1013.4 1013.0 0.0
27/10:00am 19.0 14.3 16.8 87 1.3 ESE 37 54 20 29 1013.8 1013.4 0.0
27/09:43am 18.2 13.3 16.4 89 1.1 ESE 37 56 20 30 1014.3 1013.9 0.0
27/09:30am 18.0 13.1 16.3 90 1.0 ESE 37 54 20 29 1014.0 1013.6 0.0
27/09:18am 17.8 12.8 16.1 90 1.0 SE 37 56 20 30 1013.7 1013.3 0.0
27/09:00am 17.8 13.3 16.3 91 0.9 SE 35 50 19 27 1014.3 1013.9 29.4
27/08:57am 17.7 13.5 16.2 91 0.9 SE 33 50 18 27 1014.5 1014.1 29.4
27/08:30am 17.6 15.0 15.9 90 1.0 SE 24 32 13 17 1015.2 1014.8 29.4
27/08:00am 17.9 16.1 16.1 89 1.1 SSE 20 26 11 14 1016.3 1015.9 28.6
27/07:30am 19.1 16.7 15.4 79 2.2 SSE 22 41 12 22 1016.3 1015.9 22.8
27/07:29am 19.1 16.3 15.4 79 2.2 SSE 24 41 13 22 1015.9 1015.5 22.8
27/07:00am 19.0 14.2 15.5 80 2.1 ESE 35 44 19 24 1013.8 1013.4 22.8
27/06:30am 18.7 13.1 15.4 81 1.9 ESE 39 52 21 28 1012.9 1012.5 22.8
27/06:00am 18.7 12.7 15.4 81 1.9 ESE 41 52 22 28 1012.6 1012.2 22.8
27/05:30am 18.8 12.4 15.5 81 2.0 E 43 56 23 30 1012.1 1011.7 22.8
27/05:00am 18.9 13.3 15.4 80 2.1 ESE 39 52 21 28 1012.2 1011.8 22.8
27/04:44am 18.9 12.5 15.4 80 2.1 E 43 61 23 33 1012.1 1011.7 22.8
27/04:30am 19.1 12.1 15.4 79 2.2 E 46 61 25 33 1011.5 1011.1 22.8
27/04:00am 19.3 13.0 15.6 79 2.2 E 43 54 23 29 1013.4 1013.0 22.8
27/03:50am 19.0 13.0 15.5 80 2.1 E 41 59 22 32 1012.4 1012.0 22.8
27/03:30am 18.6 13.5 15.7 83 1.7 ESE 37 50 20 27 1011.9 1011.5 22.8
27/03:00am 18.5 13.6 15.4 82 1.8 ESE 35 48 19 26 1012.3 1011.9 22.8
27/02:30am 19.1 14.8 15.8 81 2.0 ESE 33 41 18 22 1012.3 1011.9 22.8
27/02:00am 19.9 16.7 16.2 79 2.2 SE 28 41 15 22 1012.6 1012.2 22.8
27/01:30am 20.7 18.8 16.7 78 2.4 SSE 22 33 12 18 1013.6 1013.2 22.8
27/01:00am 20.9 17.2 16.9 78 2.4 ESE 32 44 17 24 1013.2 1012.8 22.8
27/12:30am 21.1 17.3 17.1 78 2.5 ESE 33 44 18 24 1013.2 1012.8 22.8
27/12:00am 21.3 17.0 16.9 76 2.7 E 35 48 19 26 1012.7 1012.3 22.8
 
Date/Time
WST
Temp
°C
App
Temp
°C
Dew
Point
°C
Rel
Hum
%
Delta-T
°C
Wind Press
QNH
hPa
Press
MSL
hPa
Rain since
9am
mm
Dir  Spd
km/h
Gust
km/h
Spd
kts
Gust
kts
26/11:30pm 21.3 17.1 17.1 77 2.6 E 35 46 19 25 1012.7 1012.3 22.8
26/11:00pm 21.3 17.5 17.3 78 2.5 ESE 33 46 18 25 1012.7 1012.3 22.8
26/10:30pm 20.9 17.8 17.5 81 2.1 ESE 30 41 16 22 1013.8 1013.4 22.8
26/10:00pm 20.9 18.2 17.5 81 2.1 ESE 28 39 15 21 1014.1 1013.7 22.8
26/09:30pm 21.2 17.7 17.4 79 2.3 ESE 32 41 17 22 1014.2 1013.8 22.8
26/09:00pm 21.5 17.9 17.1 76 2.7 E 32 43 17 23 1014.6 1014.2 22.8
26/08:30pm 21.3 17.3 17.5 79 2.3 ESE 35 48 19 26 1014.6 1014.2 22.8
26/08:00pm 20.8 17.3 17.8 83 1.9 ESE 33 44 18 24 1014.7 1014.3 22.8
26/07:30pm 20.8 17.3 18.0 84 1.7 ESE 33 41 18 22 1015.1 1014.7 22.8
26/07:00pm 20.4 16.9 17.8 85 1.6 ESE 33 44 18 24 1014.9 1014.5 22.8
26/06:30pm 20.5 17.0 17.9 85 1.6 ESE 33 43 18 23 1014.8 1014.4 22.8
26/06:00pm 20.9 17.9 17.7 82 2.0 E 30 39 16 21 1015.4 1015.0 22.8
26/05:30pm 20.9 18.2 17.5 81 2.1 E 28 37 15 20 1015.5 1015.1 22.8
26/05:00pm 21.0 18.2 17.2 79 2.3 ESE 28 35 15 19 1015.5 1015.1 22.8
26/04:30pm 20.5 17.6 17.1 81 2.1 ESE 28 37 15 20 1015.8 1015.4 22.8
26/04:00pm 20.2 16.9 17.0 82 2.0 ESE 30 37 16 20 1016.1 1015.7 22.8
26/03:30pm 20.0 16.4 17.2 84 1.7 E 32 41 17 22 1016.4 1016.0 22.8
26/03:00pm 19.7 16.1 17.1 85 1.6 E 32 41 17 22 1016.1 1015.7 22.8
26/02:30pm 19.9 17.0 18.0 89 1.2 ESE 30 41 16 22 1015.9 1015.5 22.8
26/02:00pm 18.7 15.5 17.2 91 0.9 ESE 30 39 16 21 1015.7 1015.3 22.8
26/01:39pm 19.5 16.8 17.6 89 1.2 ESE 28 56 15 30 1016.6 1016.3 21.4
26/01:34pm 19.3 18.7 16.7 85 1.6 E 15 56 8 30 1016.0 1015.6 17.2
26/01:33pm 19.4 19.1 16.4 83 1.8 E 13 48 7 26 1016.5 1016.1 14.4
26/01:30pm 20.4 20.3 17.0 81 2.1 E 13 30 7 16 1018.5 1018.2 2.2
26/01:29pm 20.3 20.1 16.7 80 2.2 ENE 13 30 7 16 1018.2 1017.9 1.2
26/01:00pm 22.5 19.3 16.3 68 3.8 ENE 28 41 15 22 1016.2 1015.8 0.0
26/12:30pm 23.3 18.4 14.3 57 5.3 ENE 33 46 18 25 1015.7 1015.3 0.0
26/12:00pm 24.1 19.4 14.8 56 5.6 E 33 43 18 23 1015.5 1015.1 0.0
26/11:30am 23.4 18.4 14.1 56 5.5 E 33 44 18 24 1016.2 1015.8 0.0
26/11:00am 24.4 18.7 14.2 53 6.0 E 37 48 20 26 1016.6 1016.3 0.0
26/10:30am 24.4 18.3 14.2 53 6.0 ESE 39 52 21 28 1016.3 1015.9 0.0
26/10:00am 22.9 16.0 13.9 57 5.3 ESE 43 57 23 31 1016.4 1016.0 0.0
26/09:30am 22.5 15.6 14.1 59 4.9 ESE 43 54 23 29 1016.5 1016.1 0.0
26/09:00am 20.1 12.8 13.3 65 3.9 E 44 56 24 30 1016.7 1016.4 0.0
26/08:30am 21.2 14.1 13.9 63 4.2 ESE 44 57 24 31 1016.7 1016.4 0.0
26/08:17am 20.6 13.6 13.8 65 3.9 ESE 43 61 23 33 1016.5 1016.1 0.0
26/08:00am 20.1 13.1 13.6 66 3.7 ESE 43 57 23 31 1016.4 1016.0 0.0
26/07:30am 19.0 11.7 13.4 70 3.2 ESE 44 61 24 33 1016.3 1015.9 0.0
26/07:26am 18.8 11.7 13.4 71 3.1 ESE 43 61 23 33 1016.3 1015.9 0.0
26/07:00am 18.0 11.7 13.5 75 2.6 ESE 39 54 21 29 1016.3 1015.9 0.0
26/06:30am 17.3 11.2 13.0 76 2.4 ESE 37 52 20 28 1016.1 1015.7 0.0
26/06:00am 17.1 11.0 13.0 77 2.3 ESE 37 50 20 27 1015.6 1015.2 0.0
26/05:30am 17.3 10.8 13.0 76 2.4 ESE 39 57 21 31 1015.3 1014.9 0.0
26/05:00am 17.3 11.7 13.2 77 2.3 ESE 35 54 19 29 1015.3 1014.9 0.0
26/04:58am 17.3 11.7 13.2 77 2.3 ESE 35 54 19 29 1015.3 1014.9 0.0
26/04:30am 17.3 11.2 13.0 76 2.4 ESE 37 54 20 29 1015.2 1014.8 0.0
26/04:00am 17.4 11.3 13.1 76 2.4 ESE 37 52 20 28 1015.1 1014.7 0.0
26/03:30am 17.4 11.0 13.1 76 2.4 ESE 39 54 21 29 1015.2 1014.8 0.0
26/03:00am 17.6 11.6 13.3 76 2.4 ESE 37 54 20 29 1015.1 1014.7 0.0
26/02:30am 17.7 11.7 13.4 76 2.4 ESE 37 52 20 28 1015.3 1014.9 0.0
26/02:05am 17.9 11.6 13.4 75 2.6 ESE 39 57 21 31 1015.1 1014.7 0.0
26/02:00am 18.0 11.4 13.7 76 2.5 ESE 41 57 22 31 1015.2 1014.8 0.0
26/01:40am 18.1 11.8 13.6 75 2.6 ESE 39 57 21 31 1015.5 1015.1 0.0
26/01:30am 18.2 11.6 13.7 75 2.6 ESE 41 54 22 29 1015.5 1015.1 0.0
26/01:00am 18.4 12.2 13.7 74 2.7 ESE 39 61 21 33 1015.8 1015.4 0.0
26/12:57am 18.4 12.1 13.5 73 2.8 ESE 39 57 21 31 1015.8 1015.4 0.0
26/12:30am 18.7 13.7 14.0 74 2.7 ESE 33 44 18 24 1015.9 1015.5 0.0
26/12:00am 19.0 13.1 13.6 71 3.1 ESE 37 54 20 29 1016.1 1015.7 0.0
 
Date/Time
WST
Temp
°C
App
Temp
°C
Dew
Point
°C
Rel
Hum
%
Delta-T
°C
Wind Press
QNH
hPa
Press
MSL
hPa
Rain since
9am
mm
Dir  Spd
km/h
Gust
km/h
Spd
kts
Gust
kts
25/11:33pm 19.3 14.5 14.1 72 3.0 ESE 32 50 17 27 1016.1 1015.7 0.0
25/11:30pm 19.4 14.1 14.2 72 3.0 ESE 35 50 19 27 1016.1 1015.7 0.0

Other formats

Comma delimited format used in spreadsheet applications
http://www.bom.gov.au/fwo/IDW60801/IDW60801.94600.axf

JavaScript Object Notation format (JSON) in row-major order
http://www.bom.gov.au/fwo/IDW60801/IDW60801.94600.json

Data quality

Most of these data are generated automatically and are frequently updated. Quality checks on data are not normally performed. It is possible for incorrect values to appear. Refer to information at About Latest Weather Observations and please check the disclaimer before using these data.